sensor_id;sensor_type;location;lat;lon;timestamp;temperature;humidity
5172;DHT22;2605;49.770;9.868;2022-09-02T00:00:55;14.30;99.90
5172;DHT22;2605;49.770;9.868;2022-09-02T00:03:26;14.30;99.90
5172;DHT22;2605;49.770;9.868;2022-09-02T00:05:52;14.20;99.90
5172;DHT22;2605;49.770;9.868;2022-09-02T00:08:18;14.20;99.90
5172;DHT22;2605;49.770;9.868;2022-09-02T00:10:44;14.20;99.90
5172;DHT22;2605;49.770;9.868;2022-09-02T00:13:12;14.10;99.90
5172;DHT22;2605;49.770;9.868;2022-09-02T00:15:40;14.10;99.90
5172;DHT22;2605;49.770;9.868;2022-09-02T00:18:05;14.00;99.90
5172;DHT22;2605;49.770;9.868;2022-09-02T00:20:32;14.00;99.90
5172;DHT22;2605;49.770;9.868;2022-09-02T00:22:57;13.90;99.90
5172;DHT22;2605;49.770;9.868;2022-09-02T00:25:23;13.90;99.90
5172;DHT22;2605;49.770;9.868;2022-09-02T00:27:49;13.80;99.90
5172;DHT22;2605;49.770;9.868;2022-09-02T00:30:15;13.80;99.90
5172;DHT22;2605;49.770;9.868;2022-09-02T00:32:41;13.80;99.90
5172;DHT22;2605;49.770;9.868;2022-09-02T00:35:07;13.70;99.90
5172;DHT22;2605;49.770;9.868;2022-09-02T00:37:33;13.70;99.90
5172;DHT22;2605;49.770;9.868;2022-09-02T00:39:58;13.70;99.90
5172;DHT22;2605;49.770;9.868;2022-09-02T00:42:24;13.60;99.90
5172;DHT22;2605;49.770;9.868;2022-09-02T00:44:50;13.60;99.90
5172;DHT22;2605;49.770;9.868;2022-09-02T00:47:16;13.50;99.90
5172;DHT22;2605;49.770;9.868;2022-09-02T00:49:46;13.50;99.90
5172;DHT22;2605;49.770;9.868;2022-09-02T00:52:26;13.40;99.90
5172;DHT22;2605;49.770;9.868;2022-09-02T00:55:03;13.40;99.90
5172;DHT22;2605;49.770;9.868;2022-09-02T00:58:04;13.30;99.90
5172;DHT22;2605;49.770;9.868;2022-09-02T01:00:37;13.30;99.90
5172;DHT22;2605;49.770;9.868;2022-09-02T01:03:10;13.30;99.90
5172;DHT22;2605;49.770;9.868;2022-09-02T01:05:41;13.20;99.90
5172;DHT22;2605;49.770;9.868;2022-09-02T01:08:09;13.20;99.90
5172;DHT22;2605;49.770;9.868;2022-09-02T01:10:35;13.10;99.90
5172;DHT22;2605;49.770;9.868;2022-09-02T01:13:07;13.10;99.90
5172;DHT22;2605;49.770;9.868;2022-09-02T01:15:39;13.00;99.90
5172;DHT22;2605;49.770;9.868;2022-09-02T01:18:06;13.00;99.90
5172;DHT22;2605;49.770;9.868;2022-09-02T01:20:33;13.00;99.90
5172;DHT22;2605;49.770;9.868;2022-09-02T01:22:58;12.90;99.90
5172;DHT22;2605;49.770;9.868;2022-09-02T01:25:28;12.90;99.90
5172;DHT22;2605;49.770;9.868;2022-09-02T01:28:01;12.90;99.90
5172;DHT22;2605;49.770;9.868;2022-09-02T01:30:28;12.80;99.90
5172;DHT22;2605;49.770;9.868;2022-09-02T01:32:54;12.80;99.90
5172;DHT22;2605;49.770;9.868;2022-09-02T01:35:20;12.70;99.90
5172;DHT22;2605;49.770;9.868;2022-09-02T01:37:46;12.70;99.90
5172;DHT22;2605;49.770;9.868;2022-09-02T01:40:14;12.70;99.90
5172;DHT22;2605;49.770;9.868;2022-09-02T01:42:40;12.60;99.90
5172;DHT22;2605;49.770;9.868;2022-09-02T01:45:07;12.60;99.90
5172;DHT22;2605;49.770;9.868;2022-09-02T01:47:34;12.60;99.90
5172;DHT22;2605;49.770;9.868;2022-09-02T01:49:59;12.50;99.90
5172;DHT22;2605;49.770;9.868;2022-09-02T01:52:30;12.50;99.90
5172;DHT22;2605;49.770;9.868;2022-09-02T01:54:56;12.60;99.90
5172;DHT22;2605;49.770;9.868;2022-09-02T01:57:22;12.40;99.90
5172;DHT22;2605;49.770;9.868;2022-09-02T01:59:49;12.40;99.90
5172;DHT22;2605;49.770;9.868;2022-09-02T02:02:15;12.40;99.90
5172;DHT22;2605;49.770;9.868;2022-09-02T02:04:44;12.40;99.90
5172;DHT22;2605;49.770;9.868;2022-09-02T02:07:11;12.40;99.90
5172;DHT22;2605;49.770;9.868;2022-09-02T02:09:37;12.30;99.90
5172;DHT22;2605;49.770;9.868;2022-09-02T02:12:03;12.40;99.90
5172;DHT22;2605;49.770;9.868;2022-09-02T02:14:30;12.30;99.90
5172;DHT22;2605;49.770;9.868;2022-09-02T02:16:55;12.30;99.90
5172;DHT22;2605;49.770;9.868;2022-09-02T02:19:21;12.20;99.90
5172;DHT22;2605;49.770;9.868;2022-09-02T02:21:47;12.20;99.90
5172;DHT22;2605;49.770;9.868;2022-09-02T02:24:13;12.20;99.90
5172;DHT22;2605;49.770;9.868;2022-09-02T02:26:38;12.10;99.90
5172;DHT22;2605;49.770;9.868;2022-09-02T02:29:04;12.10;99.90
5172;DHT22;2605;49.770;9.868;2022-09-02T02:31:30;12.10;99.90
5172;DHT22;2605;49.770;9.868;2022-09-02T02:33:55;12.10;99.90
5172;DHT22;2605;49.770;9.868;2022-09-02T02:36:21;12.10;99.90
5172;DHT22;2605;49.770;9.868;2022-09-02T02:38:50;12.10;99.90
5172;DHT22;2605;49.770;9.868;2022-09-02T02:41:15;12.10;99.90
5172;DHT22;2605;49.770;9.868;2022-09-02T02:43:41;12.10;99.90
5172;DHT22;2605;49.770;9.868;2022-09-02T02:46:08;12.00;99.90
5172;DHT22;2605;49.770;9.868;2022-09-02T02:48:34;12.00;99.90
5172;DHT22;2605;49.770;9.868;2022-09-02T02:51:01;12.00;99.90
5172;DHT22;2605;49.770;9.868;2022-09-02T02:53:27;12.00;99.90
5172;DHT22;2605;49.770;9.868;2022-09-02T02:55:54;12.00;99.90
5172;DHT22;2605;49.770;9.868;2022-09-02T02:58:20;12.00;99.90
5172;DHT22;2605;49.770;9.868;2022-09-02T03:00:45;12.00;99.90
5172;DHT22;2605;49.770;9.868;2022-09-02T03:03:11;11.90;99.90
5172;DHT22;2605;49.770;9.868;2022-09-02T03:05:39;11.90;99.90
5172;DHT22;2605;49.770;9.868;2022-09-02T03:08:07;11.90;99.90
5172;DHT22;2605;49.770;9.868;2022-09-02T03:10:33;11.90;99.90
5172;DHT22;2605;49.770;9.868;2022-09-02T03:13:00;11.90;99.90
5172;DHT22;2605;49.770;9.868;2022-09-02T03:15:26;11.80;99.90
5172;DHT22;2605;49.770;9.868;2022-09-02T03:17:54;11.80;99.90
5172;DHT22;2605;49.770;9.868;2022-09-02T03:20:20;11.80;99.90
5172;DHT22;2605;49.770;9.868;2022-09-02T03:22:47;11.70;99.90
5172;DHT22;2605;49.770;9.868;2022-09-02T03:25:15;11.70;99.90
5172;DHT22;2605;49.770;9.868;2022-09-02T03:27:41;11.70;99.90
5172;DHT22;2605;49.770;9.868;2022-09-02T03:30:13;11.60;99.90
5172;DHT22;2605;49.770;9.868;2022-09-02T03:32:39;11.60;99.90
5172;DHT22;2605;49.770;9.868;2022-09-02T03:35:08;11.60;99.90
5172;DHT22;2605;49.770;9.868;2022-09-02T03:37:34;11.60;99.90
5172;DHT22;2605;49.770;9.868;2022-09-02T03:40:02;11.50;99.90
5172;DHT22;2605;49.770;9.868;2022-09-02T03:42:28;11.50;99.90
5172;DHT22;2605;49.770;9.868;2022-09-02T03:44:53;11.50;99.90
5172;DHT22;2605;49.770;9.868;2022-09-02T03:47:19;11.50;99.90
5172;DHT22;2605;49.770;9.868;2022-09-02T03:49:46;11.50;99.90
5172;DHT22;2605;49.770;9.868;2022-09-02T03:52:11;11.40;99.90
5172;DHT22;2605;49.770;9.868;2022-09-02T03:54:37;11.50;99.90
5172;DHT22;2605;49.770;9.868;2022-09-02T03:57:03;11.50;99.90
5172;DHT22;2605;49.770;9.868;2022-09-02T03:59:29;11.50;99.90
5172;DHT22;2605;49.770;9.868;2022-09-02T04:01:54;11.50;99.90
5172;DHT22;2605;49.770;9.868;2022-09-02T04:04:20;11.50;99.90
5172;DHT22;2605;49.770;9.868;2022-09-02T04:06:45;11.40;99.90
5172;DHT22;2605;49.770;9.868;2022-09-02T04:09:11;11.40;99.90
5172;DHT22;2605;49.770;9.868;2022-09-02T04:11:37;11.40;99.90
5172;DHT22;2605;49.770;9.868;2022-09-02T04:14:07;11.40;99.90
5172;DHT22;2605;49.770;9.868;2022-09-02T04:16:33;11.40;99.90
5172;DHT22;2605;49.770;9.868;2022-09-02T04:18:59;11.30;99.90
5172;DHT22;2605;49.770;9.868;2022-09-02T04:21:30;11.30;99.90
5172;DHT22;2605;49.770;9.868;2022-09-02T04:23:56;11.30;99.90
5172;DHT22;2605;49.770;9.868;2022-09-02T04:26:22;11.20;99.90
5172;DHT22;2605;49.770;9.868;2022-09-02T04:28:49;11.20;99.90
5172;DHT22;2605;49.770;9.868;2022-09-02T04:31:17;11.20;99.90
5172;DHT22;2605;49.770;9.868;2022-09-02T04:33:44;11.20;99.90
5172;DHT22;2605;49.770;9.868;2022-09-02T04:36:12;11.20;99.90
5172;DHT22;2605;49.770;9.868;2022-09-02T04:38:38;11.20;99.90
5172;DHT22;2605;49.770;9.868;2022-09-02T04:41:09;11.20;99.90
5172;DHT22;2605;49.770;9.868;2022-09-02T04:43:35;11.10;99.90
5172;DHT22;2605;49.770;9.868;2022-09-02T04:46:04;11.10;99.90
5172;DHT22;2605;49.770;9.868;2022-09-02T04:48:30;11.10;99.90
5172;DHT22;2605;49.770;9.868;2022-09-02T04:50:56;11.10;99.90
5172;DHT22;2605;49.770;9.868;2022-09-02T04:53:22;11.10;99.90
5172;DHT22;2605;49.770;9.868;2022-09-02T04:55:47;11.10;99.90
5172;DHT22;2605;49.770;9.868;2022-09-02T04:58:13;11.20;99.90
5172;DHT22;2605;49.770;9.868;2022-09-02T05:00:40;11.20;99.90
5172;DHT22;2605;49.770;9.868;2022-09-02T05:03:06;11.20;99.90
5172;DHT22;2605;49.770;9.868;2022-09-02T05:05:33;11.30;99.90
5172;DHT22;2605;49.770;9.868;2022-09-02T05:07:58;11.30;99.90
5172;DHT22;2605;49.770;9.868;2022-09-02T05:10:24;11.40;99.90
5172;DHT22;2605;49.770;9.868;2022-09-02T05:12:50;11.50;99.90
5172;DHT22;2605;49.770;9.868;2022-09-02T05:15:16;11.60;99.90
5172;DHT22;2605;49.770;9.868;2022-09-02T05:17:42;11.70;99.90
5172;DHT22;2605;49.770;9.868;2022-09-02T05:20:09;11.80;99.90
5172;DHT22;2605;49.770;9.868;2022-09-02T05:22:35;11.90;99.90
5172;DHT22;2605;49.770;9.868;2022-09-02T05:25:01;12.10;99.90
5172;DHT22;2605;49.770;9.868;2022-09-02T05:27:27;12.20;99.90
5172;DHT22;2605;49.770;9.868;2022-09-02T05:29:56;12.20;99.90
5172;DHT22;2605;49.770;9.868;2022-09-02T05:32:24;12.30;99.90
5172;DHT22;2605;49.770;9.868;2022-09-02T05:34:50;12.40;99.90
5172;DHT22;2605;49.770;9.868;2022-09-02T05:37:15;12.50;99.90
5172;DHT22;2605;49.770;9.868;2022-09-02T05:39:41;12.60;99.90
5172;DHT22;2605;49.770;9.868;2022-09-02T05:42:07;12.60;99.90
5172;DHT22;2605;49.770;9.868;2022-09-02T05:44:32;12.70;99.90
5172;DHT22;2605;49.770;9.868;2022-09-02T05:46:58;12.80;99.90
5172;DHT22;2605;49.770;9.868;2022-09-02T05:49:23;12.80;99.90
5172;DHT22;2605;49.770;9.868;2022-09-02T05:51:53;13.00;99.90
5172;DHT22;2605;49.770;9.868;2022-09-02T05:54:22;13.10;99.90
5172;DHT22;2605;49.770;9.868;2022-09-02T05:56:52;13.10;99.90
5172;DHT22;2605;49.770;9.868;2022-09-02T05:59:20;13.20;99.90
5172;DHT22;2605;49.770;9.868;2022-09-02T06:01:46;13.30;99.90
5172;DHT22;2605;49.770;9.868;2022-09-02T06:04:13;13.40;99.90
5172;DHT22;2605;49.770;9.868;2022-09-02T06:06:39;13.50;99.90
5172;DHT22;2605;49.770;9.868;2022-09-02T06:09:07;13.60;99.90
5172;DHT22;2605;49.770;9.868;2022-09-02T06:11:35;13.70;99.90
5172;DHT22;2605;49.770;9.868;2022-09-02T06:14:07;13.80;99.90
5172;DHT22;2605;49.770;9.868;2022-09-02T06:16:36;13.90;99.90
5172;DHT22;2605;49.770;9.868;2022-09-02T06:19:02;14.00;99.90
5172;DHT22;2605;49.770;9.868;2022-09-02T06:21:28;14.00;99.90
5172;DHT22;2605;49.770;9.868;2022-09-02T06:23:54;14.20;99.90
5172;DHT22;2605;49.770;9.868;2022-09-02T06:26:19;14.30;99.90
5172;DHT22;2605;49.770;9.868;2022-09-02T06:28:45;14.40;99.90
5172;DHT22;2605;49.770;9.868;2022-09-02T06:31:14;14.50;99.90
5172;DHT22;2605;49.770;9.868;2022-09-02T06:33:44;14.70;99.90
5172;DHT22;2605;49.770;9.868;2022-09-02T06:36:13;14.80;99.90
5172;DHT22;2605;49.770;9.868;2022-09-02T06:38:40;14.90;99.90
5172;DHT22;2605;49.770;9.868;2022-09-02T06:41:13;15.10;99.90
5172;DHT22;2605;49.770;9.868;2022-09-02T06:43:40;15.30;99.90
5172;DHT22;2605;49.770;9.868;2022-09-02T06:46:06;15.40;99.90
5172;DHT22;2605;49.770;9.868;2022-09-02T06:48:32;15.50;99.90
5172;DHT22;2605;49.770;9.868;2022-09-02T06:50:57;15.60;99.90
5172;DHT22;2605;49.770;9.868;2022-09-02T06:53:23;15.70;99.90
5172;DHT22;2605;49.770;9.868;2022-09-02T06:55:49;15.60;99.90
5172;DHT22;2605;49.770;9.868;2022-09-02T06:58:15;15.70;99.90
5172;DHT22;2605;49.770;9.868;2022-09-02T07:00:41;15.70;99.90
5172;DHT22;2605;49.770;9.868;2022-09-02T07:03:07;15.70;99.90
5172;DHT22;2605;49.770;9.868;2022-09-02T07:06:11;15.80;99.90
5172;DHT22;2605;49.770;9.868;2022-09-02T07:08:39;15.90;99.90
5172;DHT22;2605;49.770;9.868;2022-09-02T07:11:07;16.00;99.90
5172;DHT22;2605;49.770;9.868;2022-09-02T07:13:38;16.00;99.90
5172;DHT22;2605;49.770;9.868;2022-09-02T07:16:04;16.00;99.90
5172;DHT22;2605;49.770;9.868;2022-09-02T07:18:32;16.10;99.90
5172;DHT22;2605;49.770;9.868;2022-09-02T07:20:57;16.20;99.90
5172;DHT22;2605;49.770;9.868;2022-09-02T07:23:23;16.20;99.90
5172;DHT22;2605;49.770;9.868;2022-09-02T07:25:49;16.30;99.90
5172;DHT22;2605;49.770;9.868;2022-09-02T07:28:14;16.30;99.90
5172;DHT22;2605;49.770;9.868;2022-09-02T07:30:41;16.40;99.90
5172;DHT22;2605;49.770;9.868;2022-09-02T07:33:08;16.50;99.90
5172;DHT22;2605;49.770;9.868;2022-09-02T07:35:34;16.60;99.90
5172;DHT22;2605;49.770;9.868;2022-09-02T07:38:04;16.70;99.90
5172;DHT22;2605;49.770;9.868;2022-09-02T07:40:29;16.80;99.90
5172;DHT22;2605;49.770;9.868;2022-09-02T07:42:55;16.90;99.90
5172;DHT22;2605;49.770;9.868;2022-09-02T07:45:21;17.00;99.90
5172;DHT22;2605;49.770;9.868;2022-09-02T07:47:46;17.10;99.90
5172;DHT22;2605;49.770;9.868;2022-09-02T07:50:13;17.10;99.90
5172;DHT22;2605;49.770;9.868;2022-09-02T07:52:39;17.20;99.90
5172;DHT22;2605;49.770;9.868;2022-09-02T07:55:05;17.30;99.90
5172;DHT22;2605;49.770;9.868;2022-09-02T07:57:30;17.40;99.90
5172;DHT22;2605;49.770;9.868;2022-09-02T07:59:56;17.50;99.90
5172;DHT22;2605;49.770;9.868;2022-09-02T08:02:22;17.60;99.90
5172;DHT22;2605;49.770;9.868;2022-09-02T08:04:47;17.70;99.90
5172;DHT22;2605;49.770;9.868;2022-09-02T08:07:13;17.80;99.90
5172;DHT22;2605;49.770;9.868;2022-09-02T08:09:38;17.90;99.90
5172;DHT22;2605;49.770;9.868;2022-09-02T08:12:07;18.00;99.90
5172;DHT22;2605;49.770;9.868;2022-09-02T08:14:33;18.10;99.90
5172;DHT22;2605;49.770;9.868;2022-09-02T08:16:58;18.30;99.90
5172;DHT22;2605;49.770;9.868;2022-09-02T08:19:24;18.40;99.90
5172;DHT22;2605;49.770;9.868;2022-09-02T08:21:50;18.50;99.90
5172;DHT22;2605;49.770;9.868;2022-09-02T08:24:16;18.60;99.90
5172;DHT22;2605;49.770;9.868;2022-09-02T08:26:41;18.70;99.90
5172;DHT22;2605;49.770;9.868;2022-09-02T08:29:07;18.70;99.90
5172;DHT22;2605;49.770;9.868;2022-09-02T08:31:35;18.90;99.90
5172;DHT22;2605;49.770;9.868;2022-09-02T08:34:01;19.00;99.90
5172;DHT22;2605;49.770;9.868;2022-09-02T08:36:27;19.20;99.90
5172;DHT22;2605;49.770;9.868;2022-09-02T08:38:53;19.30;99.90
5172;DHT22;2605;49.770;9.868;2022-09-02T08:41:22;19.40;99.90
5172;DHT22;2605;49.770;9.868;2022-09-02T08:43:50;19.50;99.90
5172;DHT22;2605;49.770;9.868;2022-09-02T08:46:17;19.60;99.90
5172;DHT22;2605;49.770;9.868;2022-09-02T08:48:51;19.70;99.90
5172;DHT22;2605;49.770;9.868;2022-09-02T08:54:09;19.90;99.90
5172;DHT22;2605;49.770;9.868;2022-09-02T08:56:36;20.00;99.90
5172;DHT22;2605;49.770;9.868;2022-09-02T08:59:02;20.10;99.90
5172;DHT22;2605;49.770;9.868;2022-09-02T09:01:51;20.10;99.90
5172;DHT22;2605;49.770;9.868;2022-09-02T09:07:19;20.40;99.90
5172;DHT22;2605;49.770;9.868;2022-09-02T09:15:58;20.80;99.90
5172;DHT22;2605;49.770;9.868;2022-09-02T09:18:37;21.00;99.90
5172;DHT22;2605;49.770;9.868;2022-09-02T09:21:04;21.20;99.90
5172;DHT22;2605;49.770;9.868;2022-09-02T09:23:33;21.20;99.90
5172;DHT22;2605;49.770;9.868;2022-09-02T09:26:09;21.20;99.90
5172;DHT22;2605;49.770;9.868;2022-09-02T09:28:43;21.20;99.90
5172;DHT22;2605;49.770;9.868;2022-09-02T09:31:12;21.30;99.90
5172;DHT22;2605;49.770;9.868;2022-09-02T09:33:39;21.40;99.90
5172;DHT22;2605;49.770;9.868;2022-09-02T09:36:06;21.50;99.90
5172;DHT22;2605;49.770;9.868;2022-09-02T09:38:33;21.70;99.90
5172;DHT22;2605;49.770;9.868;2022-09-02T09:41:20;21.80;99.90
5172;DHT22;2605;49.770;9.868;2022-09-02T09:43:48;21.90;99.90
5172;DHT22;2605;49.770;9.868;2022-09-02T09:46:27;22.10;99.90
5172;DHT22;2605;49.770;9.868;2022-09-02T09:48:53;22.30;99.90
5172;DHT22;2605;49.770;9.868;2022-09-02T09:51:19;22.30;99.90
5172;DHT22;2605;49.770;9.868;2022-09-02T09:53:45;22.30;99.90
5172;DHT22;2605;49.770;9.868;2022-09-02T09:58:44;22.60;99.90
5172;DHT22;2605;49.770;9.868;2022-09-02T10:01:11;22.80;99.90
5172;DHT22;2605;49.770;9.868;2022-09-02T10:03:41;22.60;99.90
5172;DHT22;2605;49.770;9.868;2022-09-02T10:06:20;22.40;99.90
5172;DHT22;2605;49.770;9.868;2022-09-02T10:08:55;22.40;99.90
5172;DHT22;2605;49.770;9.868;2022-09-02T10:11:29;22.50;99.90
5172;DHT22;2605;49.770;9.868;2022-09-02T10:14:03;22.80;99.90
5172;DHT22;2605;49.770;9.868;2022-09-02T10:42:30;25.20;90.00
5172;DHT22;2605;49.770;9.868;2022-09-02T10:45:22;25.30;77.20
5172;DHT22;2605;49.770;9.868;2022-09-02T10:48:12;25.40;75.20
5172;DHT22;2605;49.770;9.868;2022-09-02T10:53:57;25.20;80.20
5172;DHT22;2605;49.770;9.868;2022-09-02T10:56:30;25.10;82.60
5172;DHT22;2605;49.770;9.868;2022-09-02T10:59:06;24.70;83.50
5172;DHT22;2605;49.770;9.868;2022-09-02T11:01:43;24.60;85.30
5172;DHT22;2605;49.770;9.868;2022-09-02T11:04:37;24.60;86.80
5172;DHT22;2605;49.770;9.868;2022-09-02T11:07:07;24.80;85.00
5172;DHT22;2605;49.770;9.868;2022-09-02T11:09:46;24.90;80.70
5172;DHT22;2605;49.770;9.868;2022-09-02T11:12:17;24.80;83.10
5172;DHT22;2605;49.770;9.868;2022-09-02T11:15:02;25.00;84.70
5172;DHT22;2605;49.770;9.868;2022-09-02T11:17:58;24.90;81.90
5172;DHT22;2605;49.770;9.868;2022-09-02T11:23:31;24.30;80.10
5172;DHT22;2605;49.770;9.868;2022-09-02T11:26:11;24.50;81.10
5172;DHT22;2605;49.770;9.868;2022-09-02T11:28:53;24.60;81.20
5172;DHT22;2605;49.770;9.868;2022-09-02T11:31:37;24.80;82.30
5172;DHT22;2605;49.770;9.868;2022-09-02T11:34:50;24.90;82.00
5172;DHT22;2605;49.770;9.868;2022-09-02T11:37:28;24.80;83.90
5172;DHT22;2605;49.770;9.868;2022-09-02T11:40:10;25.00;83.00
5172;DHT22;2605;49.770;9.868;2022-09-02T11:43:00;24.90;83.20
5172;DHT22;2605;49.770;9.868;2022-09-02T11:49:15;25.10;84.20
5172;DHT22;2605;49.770;9.868;2022-09-02T11:52:04;25.50;81.60
5172;DHT22;2605;49.770;9.868;2022-09-02T11:54:41;25.40;81.50
5172;DHT22;2605;49.770;9.868;2022-09-02T11:57:13;25.40;82.50
5172;DHT22;2605;49.770;9.868;2022-09-02T12:02:39;25.40;80.60
5172;DHT22;2605;49.770;9.868;2022-09-02T12:08:05;25.30;79.70
5172;DHT22;2605;49.770;9.868;2022-09-02T12:13:37;25.30;78.10
5172;DHT22;2605;49.770;9.868;2022-09-02T12:18:41;25.40;75.20
5172;DHT22;2605;49.770;9.868;2022-09-02T12:21:10;25.30;75.80
5172;DHT22;2605;49.770;9.868;2022-09-02T12:28:50;25.20;77.10
5172;DHT22;2605;49.770;9.868;2022-09-02T12:31:37;25.40;79.10
5172;DHT22;2605;49.770;9.868;2022-09-02T12:36:52;25.20;77.70
5172;DHT22;2605;49.770;9.868;2022-09-02T12:41:54;24.90;80.60
5172;DHT22;2605;49.770;9.868;2022-09-02T12:47:59;25.00;79.10
5172;DHT22;2605;49.770;9.868;2022-09-02T12:50:54;25.00;74.90
5172;DHT22;2605;49.770;9.868;2022-09-02T12:55:57;25.30;72.50
5172;DHT22;2605;49.770;9.868;2022-09-02T12:58:28;25.40;70.60
5172;DHT22;2605;49.770;9.868;2022-09-02T13:03:39;25.50;70.40
5172;DHT22;2605;49.770;9.868;2022-09-02T13:06:26;25.50;70.50
5172;DHT22;2605;49.770;9.868;2022-09-02T13:12:00;25.30;70.90
5172;DHT22;2605;49.770;9.868;2022-09-02T13:14:55;25.30;73.20
5172;DHT22;2605;49.770;9.868;2022-09-02T13:17:46;25.40;72.50
5172;DHT22;2605;49.770;9.868;2022-09-02T13:20:18;25.40;72.10
5172;DHT22;2605;49.770;9.868;2022-09-02T13:28:39;25.30;70.50
5172;DHT22;2605;49.770;9.868;2022-09-02T13:31:20;25.30;70.60
5172;DHT22;2605;49.770;9.868;2022-09-02T13:36:30;25.40;70.60
5172;DHT22;2605;49.770;9.868;2022-09-02T13:41:43;25.20;70.10
5172;DHT22;2605;49.770;9.868;2022-09-02T13:44:11;25.20;68.30
5172;DHT22;2605;49.770;9.868;2022-09-02T13:46:52;25.20;69.10
5172;DHT22;2605;49.770;9.868;2022-09-02T13:49:24;25.20;71.20
5172;DHT22;2605;49.770;9.868;2022-09-02T13:51:52;25.10;69.40
5172;DHT22;2605;49.770;9.868;2022-09-02T13:54:33;25.20;70.40
5172;DHT22;2605;49.770;9.868;2022-09-02T13:57:03;25.20;70.10
5172;DHT22;2605;49.770;9.868;2022-09-02T13:59:45;25.20;70.80
5172;DHT22;2605;49.770;9.868;2022-09-02T14:02:35;25.20;70.50
5172;DHT22;2605;49.770;9.868;2022-09-02T14:08:04;27.40;69.10
5172;DHT22;2605;49.770;9.868;2022-09-02T14:10:31;30.20;58.80
5172;DHT22;2605;49.770;9.868;2022-09-02T14:13:01;32.70;50.80
5172;DHT22;2605;49.770;9.868;2022-09-02T14:15:30;34.00;44.50
5172;DHT22;2605;49.770;9.868;2022-09-02T14:23:34;36.60;35.10
5172;DHT22;2605;49.770;9.868;2022-09-02T14:26:03;37.90;32.80
5172;DHT22;2605;49.770;9.868;2022-09-02T14:28:30;39.30;29.90
5172;DHT22;2605;49.770;9.868;2022-09-02T14:31:00;39.80;27.60
5172;DHT22;2605;49.770;9.868;2022-09-02T14:33:36;40.50;26.10
5172;DHT22;2605;49.770;9.868;2022-09-02T14:43:47;40.60;22.60
5172;DHT22;2605;49.770;9.868;2022-09-02T14:46:23;39.40;22.90
5172;DHT22;2605;49.770;9.868;2022-09-02T14:49:09;40.20;23.30
5172;DHT22;2605;49.770;9.868;2022-09-02T14:51:43;40.50;22.40
5172;DHT22;2605;49.770;9.868;2022-09-02T14:54:10;41.20;21.60
5172;DHT22;2605;49.770;9.868;2022-09-02T14:56:48;41.50;21.50
5172;DHT22;2605;49.770;9.868;2022-09-02T14:59:14;42.50;21.20
5172;DHT22;2605;49.770;9.868;2022-09-02T15:01:41;42.40;20.50
5172;DHT22;2605;49.770;9.868;2022-09-02T15:04:08;42.80;20.50
5172;DHT22;2605;49.770;9.868;2022-09-02T15:06:34;43.60;20.30
5172;DHT22;2605;49.770;9.868;2022-09-02T15:09:00;44.10;19.60
5172;DHT22;2605;49.770;9.868;2022-09-02T15:11:25;43.30;19.40
5172;DHT22;2605;49.770;9.868;2022-09-02T15:13:51;42.20;19.80
5172;DHT22;2605;49.770;9.868;2022-09-02T15:16:17;42.30;19.40
5172;DHT22;2605;49.770;9.868;2022-09-02T15:18:43;43.10;19.60
5172;DHT22;2605;49.770;9.868;2022-09-02T15:21:08;42.00;19.50
5172;DHT22;2605;49.770;9.868;2022-09-02T15:23:34;41.70;19.30
5172;DHT22;2605;49.770;9.868;2022-09-02T15:26:02;42.20;19.40
5172;DHT22;2605;49.770;9.868;2022-09-02T15:28:27;41.70;18.50
5172;DHT22;2605;49.770;9.868;2022-09-02T15:30:58;41.80;19.00
5172;DHT22;2605;49.770;9.868;2022-09-02T15:33:24;41.60;19.20
5172;DHT22;2605;49.770;9.868;2022-09-02T15:35:49;41.10;19.00
5172;DHT22;2605;49.770;9.868;2022-09-02T15:38:14;41.50;19.20
5172;DHT22;2605;49.770;9.868;2022-09-02T15:40:41;41.00;19.10
5172;DHT22;2605;49.770;9.868;2022-09-02T15:43:07;41.90;19.30
5172;DHT22;2605;49.770;9.868;2022-09-02T15:45:33;42.50;19.20
5172;DHT22;2605;49.770;9.868;2022-09-02T15:47:59;42.60;18.80
5172;DHT22;2605;49.770;9.868;2022-09-02T15:50:25;41.30;18.60
5172;DHT22;2605;49.770;9.868;2022-09-02T15:52:55;41.60;18.80
5172;DHT22;2605;49.770;9.868;2022-09-02T15:55:20;42.70;18.80
5172;DHT22;2605;49.770;9.868;2022-09-02T15:57:46;43.40;18.40
5172;DHT22;2605;49.770;9.868;2022-09-02T16:00:14;43.30;17.70
5172;DHT22;2605;49.770;9.868;2022-09-02T16:02:40;42.50;17.30
5172;DHT22;2605;49.770;9.868;2022-09-02T16:05:06;43.10;17.30
5172;DHT22;2605;49.770;9.868;2022-09-02T16:07:31;43.60;17.30
5172;DHT22;2605;49.770;9.868;2022-09-02T16:09:57;43.30;17.10
5172;DHT22;2605;49.770;9.868;2022-09-02T16:12:23;44.10;17.20
5172;DHT22;2605;49.770;9.868;2022-09-02T16:14:49;43.50;16.90
5172;DHT22;2605;49.770;9.868;2022-09-02T16:17:15;44.00;17.40
5172;DHT22;2605;49.770;9.868;2022-09-02T16:19:41;44.10;17.20
5172;DHT22;2605;49.770;9.868;2022-09-02T16:22:07;43.60;17.10
5172;DHT22;2605;49.770;9.868;2022-09-02T16:24:32;41.90;16.90
5172;DHT22;2605;49.770;9.868;2022-09-02T16:26:58;40.40;17.90
5172;DHT22;2605;49.770;9.868;2022-09-02T16:29:23;40.20;18.20
5172;DHT22;2605;49.770;9.868;2022-09-02T16:31:51;39.70;18.60
5172;DHT22;2605;49.770;9.868;2022-09-02T16:34:17;38.70;18.80
5172;DHT22;2605;49.770;9.868;2022-09-02T16:36:46;38.00;19.50
5172;DHT22;2605;49.770;9.868;2022-09-02T16:39:13;38.60;19.60
5172;DHT22;2605;49.770;9.868;2022-09-02T16:41:57;38.60;19.80
5172;DHT22;2605;49.770;9.868;2022-09-02T16:44:28;38.80;19.80
5172;DHT22;2605;49.770;9.868;2022-09-02T16:46:55;39.10;19.80
5172;DHT22;2605;49.770;9.868;2022-09-02T16:49:21;38.70;19.60
5172;DHT22;2605;49.770;9.868;2022-09-02T16:51:49;38.50;20.30
5172;DHT22;2605;49.770;9.868;2022-09-02T16:54:15;38.20;19.90
5172;DHT22;2605;49.770;9.868;2022-09-02T16:56:41;37.10;20.30
5172;DHT22;2605;49.770;9.868;2022-09-02T16:59:10;36.30;21.30
5172;DHT22;2605;49.770;9.868;2022-09-02T17:01:38;36.10;21.50
5172;DHT22;2605;49.770;9.868;2022-09-02T17:04:05;35.90;21.70
5172;DHT22;2605;49.770;9.868;2022-09-02T17:06:31;34.80;22.50
5172;DHT22;2605;49.770;9.868;2022-09-02T17:08:56;34.50;23.30
5172;DHT22;2605;49.770;9.868;2022-09-02T17:11:31;34.20;23.80
5172;DHT22;2605;49.770;9.868;2022-09-02T17:14:10;33.70;24.30
5172;DHT22;2605;49.770;9.868;2022-09-02T17:16:39;33.50;24.70
5172;DHT22;2605;49.770;9.868;2022-09-02T17:19:05;33.10;25.00
5172;DHT22;2605;49.770;9.868;2022-09-02T17:21:38;33.10;25.30
5172;DHT22;2605;49.770;9.868;2022-09-02T17:24:07;33.10;25.80
5172;DHT22;2605;49.770;9.868;2022-09-02T17:26:34;32.50;26.00
5172;DHT22;2605;49.770;9.868;2022-09-02T17:29:06;31.70;27.40
5172;DHT22;2605;49.770;9.868;2022-09-02T17:31:33;30.90;28.70
5172;DHT22;2605;49.770;9.868;2022-09-02T17:34:00;29.90;29.90
5172;DHT22;2605;49.770;9.868;2022-09-02T17:36:30;29.00;32.60
5172;DHT22;2605;49.770;9.868;2022-09-02T17:39:04;28.40;35.50
5172;DHT22;2605;49.770;9.868;2022-09-02T17:41:30;27.90;38.00
5172;DHT22;2605;49.770;9.868;2022-09-02T17:44:14;27.50;40.80
5172;DHT22;2605;49.770;9.868;2022-09-02T17:46:41;26.80;43.00
5172;DHT22;2605;49.770;9.868;2022-09-02T17:49:07;26.10;46.90
5172;DHT22;2605;49.770;9.868;2022-09-02T17:51:33;25.40;50.90
5172;DHT22;2605;49.770;9.868;2022-09-02T17:53:58;25.00;54.40
5172;DHT22;2605;49.770;9.868;2022-09-02T18:05:03;22.70;76.30
5172;DHT22;2605;49.770;9.868;2022-09-02T18:10:15;21.80;87.50
5172;DHT22;2605;49.770;9.868;2022-09-02T18:12:41;21.60;90.80
5172;DHT22;2605;49.770;9.868;2022-09-02T18:15:07;21.30;93.10
5172;DHT22;2605;49.770;9.868;2022-09-02T18:17:42;21.00;95.00